Coastal Carolina Regional Airport New Bern US
ICAO: KEWN
IATA: EWN
Category: Medium
Scheduled Services: Yes

Elevation: 18 ft
TransAlt. 18000 ft.

Airport Communications:
CHERRY POINT APP/DEP:119.35
ASOS:118.525
CLNC DEL:120.525
CTAF:124.25
GND:121.7
RALEIGH RDO:122.2
NEW BERN TWR:124.25

KEWN Zoom In..

If Map Doesn't Load, Click Here

Runways:

(A) RW 04 length 6453 ft width 150 ft
ILS 110.50 / hdg 39

(B) RW 14 length 4000 ft width 150 ft
---- / hdg 136

(C) RW 22 length 6453 ft width 150 ft
---- / hdg 219

(D) RW 32 length 4000 ft width 150 ft
---- / hdg 316

Location; KEWN
Day. 21 / Time. 14.54 Zulu
* Altimeter: 30.25
* Temperature: 24° c. 75.2°f.
* Wind from: 330° Speed 03 kn.
Dewpoint: 19° c.
Visibility: 10 Statute Miles.
Clouds: Clear (automated report).

KEWN 211454Z 33003KT 10SM CLR 24/19 A3025 RMK AO2 SLP243 T02440194 50006


Wind From 330°
Speed 03 kn.

 
 
jpsmedia.com for Web Design worldairports.se 2018   terms of use